createdAt,value
2023-12-31T00:01:02.009Z,9.50
2023-12-31T00:03:50.716Z,10.00
2023-12-31T00:06:19.125Z,7.90
2023-12-31T00:08:48.104Z,9.30
2023-12-31T00:11:16.622Z,7.30
2023-12-31T00:16:16.464Z,4.10
2023-12-31T00:18:45.575Z,5.70
2023-12-31T00:21:14.627Z,5.10
2023-12-31T00:23:43.838Z,6.40
2023-12-31T00:26:12.179Z,3.90
2023-12-31T00:28:41.134Z,9.90
2023-12-31T00:31:09.624Z,4.60
2023-12-31T00:33:39.522Z,4.00
2023-12-31T00:36:08.587Z,6.70
2023-12-31T00:38:38.764Z,4.30
2023-12-31T00:41:07.348Z,5.10
2023-12-31T00:43:36.004Z,6.40
2023-12-31T00:48:32.579Z,6.80
2023-12-31T00:51:04.781Z,8.00
2023-12-31T00:53:33.790Z,7.30
2023-12-31T00:56:02.567Z,10.50
2023-12-31T00:58:31.191Z,7.20
2023-12-31T01:03:28.146Z,6.70
2023-12-31T01:06:06.454Z,6.50
2023-12-31T01:08:35.516Z,7.50
2023-12-31T01:11:03.932Z,6.40
2023-12-31T01:13:32.674Z,5.10
2023-12-31T01:16:01.514Z,6.40
2023-12-31T01:18:31.298Z,6.50
2023-12-31T01:21:00.105Z,9.70
2023-12-31T01:23:28.630Z,7.70
2023-12-31T01:28:25.506Z,9.00
2023-12-31T01:33:23.147Z,4.40
2023-12-31T01:35:52.026Z,4.80
2023-12-31T01:38:20.462Z,6.20
2023-12-31T01:40:54.857Z,4.80
2023-12-31T01:43:24.605Z,4.40
2023-12-31T01:45:53.113Z,4.30
2023-12-31T01:50:51.132Z,6.80
2023-12-31T01:53:20.829Z,4.80
2023-12-31T01:55:50.696Z,6.80
2023-12-31T01:58:19.906Z,6.90
2023-12-31T02:00:48.825Z,11.60
2023-12-31T02:03:18.966Z,5.40
2023-12-31T02:05:48.136Z,5.00
2023-12-31T02:08:16.532Z,5.70
2023-12-31T02:10:45.405Z,6.00
2023-12-31T02:13:13.981Z,6.50
2023-12-31T02:15:42.550Z,5.50
2023-12-31T02:18:12.758Z,6.30
2023-12-31T02:20:41.166Z,6.40
2023-12-31T02:23:09.617Z,5.60
2023-12-31T02:28:15.715Z,4.50
2023-12-31T02:30:44.184Z,8.60
2023-12-31T02:35:42.371Z,7.40
2023-12-31T02:38:10.730Z,5.50
2023-12-31T02:40:38.955Z,8.40
2023-12-31T02:43:07.798Z,5.30
2023-12-31T02:45:36.677Z,5.40
2023-12-31T02:48:05.911Z,4.60
2023-12-31T02:50:34.922Z,4.70
2023-12-31T02:53:04.855Z,6.40
2023-12-31T02:55:33.489Z,4.20
2023-12-31T03:00:30.528Z,5.60
2023-12-31T03:02:58.976Z,4.40
2023-12-31T03:05:27.370Z,4.90
2023-12-31T03:07:56.146Z,5.20
2023-12-31T03:10:25.023Z,8.10
2023-12-31T03:12:54.087Z,4.80
2023-12-31T03:15:23.002Z,6.10
2023-12-31T03:17:51.517Z,9.70
2023-12-31T03:20:20.303Z,6.60
2023-12-31T03:25:19.207Z,6.50
2023-12-31T03:30:16.767Z,4.70
2023-12-31T03:32:45.301Z,5.50
2023-12-31T03:35:13.746Z,6.00
2023-12-31T03:37:48.515Z,4.70
2023-12-31T03:40:17.210Z,6.80
2023-12-31T03:42:45.604Z,7.20
2023-12-31T03:45:16.693Z,4.60
2023-12-31T03:47:45.185Z,4.90
2023-12-31T03:50:14.146Z,6.20
2023-12-31T03:55:11.008Z,5.50
2023-12-31T03:57:39.456Z,11.60
2023-12-31T04:00:09.798Z,7.90
2023-12-31T04:02:38.366Z,6.90
2023-12-31T04:07:35.271Z,7.10
2023-12-31T04:10:03.661Z,7.20
2023-12-31T04:15:00.942Z,6.30
2023-12-31T04:17:29.364Z,7.10
2023-12-31T04:22:26.193Z,7.20
2023-12-31T04:27:23.234Z,7.20
2023-12-31T04:29:51.577Z,7.40
2023-12-31T04:32:19.881Z,10.70
2023-12-31T04:34:48.418Z,7.10
2023-12-31T04:37:17.135Z,7.90
2023-12-31T04:39:45.506Z,10.10
2023-12-31T04:42:13.988Z,9.00
2023-12-31T04:44:42.658Z,7.50
2023-12-31T04:47:10.990Z,8.90
2023-12-31T04:52:10.092Z,7.50
2023-12-31T04:54:40.398Z,8.10
2023-12-31T04:57:08.709Z,6.80
2023-12-31T04:59:37.518Z,8.20
2023-12-31T05:02:06.138Z,7.90
2023-12-31T05:04:34.452Z,9.40
2023-12-31T05:09:32.942Z,6.50
2023-12-31T05:12:01.172Z,7.00
2023-12-31T05:14:29.622Z,9.00
2023-12-31T05:16:58.179Z,8.40
2023-12-31T05:19:26.846Z,6.50
2023-12-31T05:21:55.396Z,9.00
2023-12-31T05:24:23.710Z,9.40
2023-12-31T05:26:52.003Z,8.40
2023-12-31T05:29:20.265Z,8.00
2023-12-31T05:31:48.902Z,9.30
2023-12-31T05:34:17.333Z,9.40
2023-12-31T05:36:45.803Z,8.20
2023-12-31T05:41:42.467Z,8.70
2023-12-31T05:44:13.461Z,8.20
2023-12-31T05:46:42.040Z,8.40
2023-12-31T05:49:10.423Z,12.70
2023-12-31T05:51:38.964Z,9.30
2023-12-31T05:54:07.540Z,10.30
2023-12-31T05:56:35.948Z,12.20
2023-12-31T06:01:32.820Z,11.20
2023-12-31T06:04:01.468Z,9.10
2023-12-31T06:06:35.336Z,11.00
2023-12-31T06:09:04.370Z,10.80
2023-12-31T06:11:32.969Z,10.00
2023-12-31T06:14:04.401Z,10.00
2023-12-31T06:16:32.837Z,13.00
2023-12-31T06:19:01.326Z,11.90
2023-12-31T06:23:58.216Z,8.50
2023-12-31T06:28:55.317Z,12.60
2023-12-31T06:31:23.871Z,9.40
2023-12-31T06:33:53.437Z,9.40
2023-12-31T06:36:22.081Z,11.50
2023-12-31T06:38:50.458Z,12.60
2023-12-31T06:41:22.617Z,11.90
2023-12-31T06:43:51.775Z,12.70
2023-12-31T06:46:20.427Z,13.20
2023-12-31T06:48:48.964Z,11.90
2023-12-31T06:51:17.417Z,10.30
2023-12-31T06:53:45.765Z,9.40
2023-12-31T06:56:14.626Z,12.00
2023-12-31T06:58:43.369Z,12.10
2023-12-31T07:01:12.341Z,11.60
2023-12-31T07:03:41.152Z,9.50
2023-12-31T07:06:10.337Z,9.70
2023-12-31T07:08:39.165Z,9.20
2023-12-31T07:11:07.494Z,10.70
2023-12-31T07:16:06.399Z,8.70
2023-12-31T07:18:35.172Z,10.10
2023-12-31T07:21:06.561Z,9.40
2023-12-31T07:23:35.100Z,11.50
2023-12-31T07:26:07.422Z,14.70
2023-12-31T07:28:36.307Z,12.70
2023-12-31T07:31:05.095Z,10.40
2023-12-31T07:33:33.516Z,8.50
2023-12-31T07:36:01.871Z,10.10
2023-12-31T07:38:31.016Z,11.50
2023-12-31T07:40:59.598Z,12.30
2023-12-31T07:43:28.332Z,14.00
2023-12-31T07:45:56.845Z,11.00
2023-12-31T07:50:55.123Z,11.50
2023-12-31T07:55:51.942Z,15.20
2023-12-31T07:58:26.016Z,14.30
2023-12-31T08:00:57.004Z,9.50
2023-12-31T08:03:28.314Z,9.70
2023-12-31T08:05:57.903Z,12.80
2023-12-31T08:08:27.068Z,11.20
2023-12-31T08:10:55.423Z,11.50
2023-12-31T08:15:52.124Z,13.40
2023-12-31T08:18:21.390Z,9.50
2023-12-31T08:20:49.927Z,10.80
2023-12-31T08:23:19.455Z,11.80
2023-12-31T08:25:48.079Z,11.40
2023-12-31T08:28:16.721Z,11.10
2023-12-31T08:30:45.565Z,13.40
2023-12-31T08:33:14.029Z,12.60
2023-12-31T08:35:43.306Z,13.50
2023-12-31T08:38:11.913Z,10.30
2023-12-31T08:40:40.916Z,15.40
2023-12-31T08:43:09.865Z,15.20
2023-12-31T08:45:41.436Z,18.80
2023-12-31T08:48:11.812Z,12.50
2023-12-31T08:50:40.718Z,14.50
2023-12-31T08:55:38.205Z,11.60
2023-12-31T08:58:07.389Z,13.00
2023-12-31T09:00:35.944Z,14.60
2023-12-31T09:03:05.505Z,9.70
2023-12-31T09:05:34.437Z,9.40
2023-12-31T09:08:06.319Z,12.50
2023-12-31T09:10:35.351Z,15.90
2023-12-31T09:13:05.265Z,12.80
2023-12-31T09:15:34.152Z,11.00
2023-12-31T09:18:02.612Z,12.60
2023-12-31T09:22:59.878Z,13.40
2023-12-31T09:25:28.678Z,13.00
2023-12-31T09:27:57.270Z,10.50
2023-12-31T09:32:54.086Z,13.80
2023-12-31T09:35:22.989Z,14.20
2023-12-31T09:37:51.367Z,13.40
2023-12-31T09:40:20.352Z,14.60
2023-12-31T09:42:50.931Z,14.90
2023-12-31T09:45:28.700Z,22.60
2023-12-31T09:48:01.512Z,16.00
2023-12-31T09:50:31.894Z,14.20
2023-12-31T09:53:04.845Z,14.20
2023-12-31T09:55:35.924Z,15.50
2023-12-31T09:58:06.251Z,17.10
2023-12-31T10:00:34.920Z,14.60
2023-12-31T10:03:06.208Z,22.50
2023-12-31T10:05:39.728Z,14.40
2023-12-31T10:08:10.343Z,13.90
2023-12-31T10:10:40.156Z,19.90
2023-12-31T10:13:15.478Z,12.40
2023-12-31T10:15:44.429Z,14.00
2023-12-31T10:18:12.940Z,12.60
2023-12-31T10:20:41.568Z,10.20
2023-12-31T10:23:10.250Z,9.50
2023-12-31T10:25:38.606Z,10.20
2023-12-31T10:28:07.258Z,10.60
2023-12-31T10:30:40.337Z,11.60
2023-12-31T10:33:15.573Z,12.80
2023-12-31T10:35:44.816Z,10.30
2023-12-31T10:38:13.396Z,14.40
2023-12-31T10:40:42.794Z,11.20
2023-12-31T10:43:14.358Z,9.80
2023-12-31T10:45:42.959Z,11.10
2023-12-31T10:48:14.297Z,8.10
2023-12-31T10:50:48.283Z,8.30
2023-12-31T10:53:18.263Z,7.20
2023-12-31T10:55:48.577Z,8.30
2023-12-31T10:58:18.201Z,7.60
2023-12-31T11:00:47.458Z,7.50
2023-12-31T11:03:18.919Z,7.20
2023-12-31T11:05:47.737Z,7.10
2023-12-31T11:08:18.879Z,6.50
2023-12-31T11:10:48.400Z,6.70
2023-12-31T11:13:19.279Z,5.80
2023-12-31T11:15:55.568Z,6.70
2023-12-31T11:19:02.549Z,7.00
2023-12-31T11:22:04.907Z,5.30
2023-12-31T11:24:33.686Z,7.30
2023-12-31T11:27:20.723Z,10.00
2023-12-31T11:29:54.074Z,10.00
2023-12-31T11:32:22.642Z,11.10
2023-12-31T11:34:55.410Z,13.20
2023-12-31T11:37:25.076Z,9.00
2023-12-31T11:39:56.823Z,9.00
2023-12-31T11:42:26.958Z,8.60
2023-12-31T11:44:56.556Z,8.40
2023-12-31T11:47:30.916Z,6.50
2023-12-31T11:49:59.560Z,7.10
2023-12-31T11:52:42.096Z,6.60
2023-12-31T11:55:14.457Z,7.70
2023-12-31T11:57:45.631Z,6.50
2023-12-31T12:00:14.464Z,6.20
2023-12-31T12:02:42.780Z,6.40
2023-12-31T12:05:11.210Z,5.80
2023-12-31T12:07:42.547Z,6.10
2023-12-31T12:10:12.330Z,5.80
2023-12-31T12:12:40.824Z,6.40
2023-12-31T12:15:09.631Z,6.70
2023-12-31T12:17:38.733Z,6.40
2023-12-31T12:20:11.200Z,5.50
2023-12-31T12:22:40.725Z,6.00
2023-12-31T12:25:09.765Z,5.00
2023-12-31T12:27:38.304Z,7.70
2023-12-31T12:30:07.651Z,6.20
2023-12-31T12:32:36.501Z,4.70
2023-12-31T12:35:08.209Z,4.50
2023-12-31T12:37:36.753Z,3.50
2023-12-31T12:40:06.839Z,3.70
2023-12-31T12:42:35.551Z,2.60
2023-12-31T12:45:04.557Z,3.00
2023-12-31T12:47:33.057Z,4.00
2023-12-31T12:50:02.765Z,3.90
2023-12-31T12:52:32.430Z,4.20
2023-12-31T12:55:01.153Z,3.40
2023-12-31T12:57:29.637Z,2.70
2023-12-31T13:00:00.570Z,3.40
2023-12-31T13:02:29.310Z,2.50
2023-12-31T13:04:59.071Z,2.40
2023-12-31T13:07:27.612Z,2.30
2023-12-31T13:09:56.193Z,2.60
2023-12-31T13:12:24.551Z,2.80
2023-12-31T13:14:52.943Z,4.40
2023-12-31T13:17:23.266Z,3.30
2023-12-31T13:19:55.386Z,4.10
2023-12-31T13:22:23.939Z,4.10
2023-12-31T13:24:52.600Z,5.40
2023-12-31T13:27:22.859Z,4.50
2023-12-31T13:29:51.214Z,3.40
2023-12-31T13:32:20.547Z,4.70
2023-12-31T13:34:49.027Z,6.40
2023-12-31T13:37:17.486Z,5.10
2023-12-31T13:39:45.856Z,6.40
2023-12-31T13:42:14.551Z,6.70
2023-12-31T13:44:43.042Z,4.60
2023-12-31T13:47:14.864Z,3.80
2023-12-31T13:49:43.503Z,3.50
2023-12-31T13:52:12.470Z,4.50
2023-12-31T13:54:41.511Z,2.80
2023-12-31T13:57:10.056Z,3.00
2023-12-31T13:59:38.735Z,2.90
2023-12-31T14:02:07.617Z,3.60
2023-12-31T14:04:36.282Z,4.40
2023-12-31T14:07:05.280Z,2.90
2023-12-31T14:09:37.267Z,3.70
2023-12-31T14:12:06.911Z,3.00
2023-12-31T14:14:35.379Z,3.40
2023-12-31T14:19:33.079Z,3.90
2023-12-31T14:22:01.863Z,3.50
2023-12-31T14:24:30.947Z,4.60
2023-12-31T14:26:59.772Z,3.90
2023-12-31T14:29:28.529Z,7.60
2023-12-31T14:31:57.330Z,6.90
2023-12-31T14:34:26.242Z,6.30
2023-12-31T14:36:54.973Z,6.60
2023-12-31T14:39:23.316Z,5.90
2023-12-31T14:41:51.828Z,7.00
2023-12-31T14:44:21.111Z,5.40
2023-12-31T14:46:49.586Z,4.60
2023-12-31T14:49:17.949Z,5.90
2023-12-31T14:51:46.941Z,6.20
2023-12-31T14:54:15.593Z,6.20
2023-12-31T14:56:44.019Z,5.10
2023-12-31T14:59:12.396Z,5.90
2023-12-31T15:01:40.839Z,3.60
2023-12-31T15:04:10.955Z,5.60
2023-12-31T15:06:42.610Z,5.40
2023-12-31T15:09:16.331Z,5.70
2023-12-31T15:11:46.094Z,5.10
2023-12-31T15:14:15.149Z,4.40
2023-12-31T15:16:43.638Z,3.80
2023-12-31T15:19:12.133Z,3.40
2023-12-31T15:21:40.490Z,3.10
2023-12-31T15:24:09.306Z,3.80
2023-12-31T15:26:37.832Z,2.90
2023-12-31T15:29:07.327Z,3.50
2023-12-31T15:31:38.476Z,3.00
2023-12-31T15:34:08.487Z,3.60
2023-12-31T15:36:36.806Z,5.80
2023-12-31T15:41:33.371Z,4.40
2023-12-31T15:44:02.147Z,3.00
2023-12-31T15:46:31.272Z,2.50
2023-12-31T15:48:59.931Z,3.20
2023-12-31T15:51:29.040Z,3.40
2023-12-31T15:53:57.294Z,6.80
2023-12-31T15:56:27.834Z,3.50
2023-12-31T15:58:56.347Z,4.50
2023-12-31T16:01:24.923Z,4.00
2023-12-31T16:03:53.743Z,3.10
2023-12-31T16:06:22.727Z,4.30
2023-12-31T16:08:51.153Z,5.20
2023-12-31T16:11:20.852Z,6.60
2023-12-31T16:13:49.061Z,4.10
2023-12-31T16:18:45.831Z,4.80
2023-12-31T16:21:14.375Z,3.60
2023-12-31T16:26:11.210Z,3.30
2023-12-31T16:28:39.686Z,3.90
2023-12-31T16:31:11.104Z,3.60
2023-12-31T16:33:39.586Z,2.80
2023-12-31T16:36:08.196Z,4.00
2023-12-31T16:38:36.681Z,3.20
2023-12-31T16:43:34.082Z,4.40
2023-12-31T16:46:02.934Z,5.00
2023-12-31T16:48:31.711Z,4.60
2023-12-31T16:51:00.295Z,4.90
2023-12-31T16:53:29.284Z,10.20
2023-12-31T16:55:58.935Z,7.50
2023-12-31T16:58:27.650Z,4.80
2023-12-31T17:00:56.295Z,7.40
2023-12-31T17:03:25.132Z,6.50
2023-12-31T17:05:55.684Z,6.20
2023-12-31T17:08:24.533Z,6.30
2023-12-31T17:10:53.003Z,8.10
2023-12-31T17:13:21.232Z,5.10
2023-12-31T17:15:49.771Z,6.90
2023-12-31T17:18:20.189Z,6.10
2023-12-31T17:20:48.764Z,6.50
2023-12-31T17:23:18.589Z,5.90
2023-12-31T17:25:47.067Z,6.60
2023-12-31T17:28:15.424Z,8.40
2023-12-31T17:30:43.677Z,8.10
2023-12-31T17:35:41.339Z,10.90
2023-12-31T17:38:10.296Z,12.00
2023-12-31T17:40:38.857Z,17.10
2023-12-31T17:43:07.655Z,15.30
2023-12-31T17:45:36.365Z,21.90
2023-12-31T17:48:05.815Z,14.20
2023-12-31T17:50:34.449Z,18.70
2023-12-31T17:53:02.945Z,13.50
2023-12-31T17:55:31.602Z,13.40
2023-12-31T17:58:00.224Z,15.90
2023-12-31T18:00:28.733Z,16.40
2023-12-31T18:02:57.233Z,16.30
2023-12-31T18:05:26.049Z,21.90
2023-12-31T18:07:54.582Z,13.70
2023-12-31T18:10:23.351Z,18.30
2023-12-31T18:12:57.082Z,16.80
2023-12-31T18:15:25.806Z,13.60
2023-12-31T18:17:54.991Z,13.60
2023-12-31T18:20:23.968Z,14.30
2023-12-31T18:22:52.642Z,14.60
2023-12-31T18:25:21.101Z,17.10
2023-12-31T18:27:49.490Z,14.90
2023-12-31T18:30:23.674Z,13.80
2023-12-31T18:32:54.917Z,15.40
2023-12-31T18:35:23.581Z,20.10
2023-12-31T18:40:20.501Z,14.00
2023-12-31T18:42:49.153Z,14.60
2023-12-31T18:45:18.153Z,13.50
2023-12-31T18:47:46.957Z,12.30
2023-12-31T18:50:15.587Z,8.50
2023-12-31T18:52:43.897Z,9.70
2023-12-31T18:57:43.090Z,9.80
2023-12-31T19:00:12.693Z,13.70
2023-12-31T19:02:41.456Z,8.30
2023-12-31T19:05:10.072Z,12.40
2023-12-31T19:07:38.772Z,11.00
2023-12-31T19:10:08.075Z,10.10
2023-12-31T19:12:37.281Z,11.80
2023-12-31T19:15:06.542Z,10.70
2023-12-31T19:17:34.814Z,9.00
2023-12-31T19:22:33.867Z,7.90
2023-12-31T19:25:04.863Z,7.30
2023-12-31T19:27:33.772Z,7.20
2023-12-31T19:30:02.675Z,5.60
2023-12-31T19:32:31.258Z,8.20
2023-12-31T19:34:59.885Z,7.30
2023-12-31T19:37:28.316Z,6.60
2023-12-31T19:39:56.812Z,6.80
2023-12-31T19:42:25.235Z,6.40
2023-12-31T19:44:53.875Z,5.50
2023-12-31T19:47:22.337Z,5.90
2023-12-31T19:52:29.662Z,6.90
2023-12-31T19:54:59.002Z,4.10
2023-12-31T19:57:27.749Z,4.00
2023-12-31T19:59:57.864Z,5.40
2023-12-31T20:02:30.250Z,4.20
2023-12-31T20:04:59.236Z,4.60
2023-12-31T20:07:30.117Z,3.60
2023-12-31T20:09:59.136Z,4.90
2023-12-31T20:12:27.855Z,5.70
2023-12-31T20:14:56.565Z,6.30
2023-12-31T20:17:26.426Z,8.90
2023-12-31T20:19:56.004Z,8.20
2023-12-31T20:22:24.557Z,10.80
2023-12-31T20:24:53.108Z,7.90
2023-12-31T20:27:21.582Z,11.60
2023-12-31T20:32:18.894Z,13.00
2023-12-31T20:34:47.721Z,14.40
2023-12-31T20:37:16.610Z,15.70
2023-12-31T20:39:45.323Z,11.70
2023-12-31T20:42:13.774Z,11.20
2023-12-31T20:44:42.244Z,10.70
2023-12-31T20:47:10.640Z,10.10
2023-12-31T20:49:41.037Z,11.60
2023-12-31T20:52:16.647Z,13.30
2023-12-31T20:54:46.737Z,12.90
2023-12-31T20:57:17.369Z,10.80
2023-12-31T20:59:45.865Z,10.00
2023-12-31T21:02:14.635Z,12.70
2023-12-31T21:04:43.601Z,9.00
2023-12-31T21:07:12.545Z,9.10
2023-12-31T21:09:40.930Z,7.30
2023-12-31T21:12:09.668Z,8.50
2023-12-31T21:14:38.159Z,11.10
2023-12-31T21:17:06.915Z,8.40
2023-12-31T21:19:35.522Z,12.10
2023-12-31T21:22:03.923Z,9.50
2023-12-31T21:24:33.068Z,11.00
2023-12-31T21:27:01.585Z,12.50
2023-12-31T21:29:30.289Z,9.70
2023-12-31T21:31:58.728Z,11.60
2023-12-31T21:34:27.617Z,12.20
2023-12-31T21:36:56.400Z,11.70
2023-12-31T21:39:24.912Z,13.20
2023-12-31T21:41:53.524Z,12.20
2023-12-31T21:44:22.211Z,14.40
2023-12-31T21:46:50.622Z,13.40
2023-12-31T21:49:19.252Z,10.50
2023-12-31T21:51:48.002Z,12.80
2023-12-31T21:54:16.544Z,14.50
2023-12-31T21:56:57.427Z,15.30
2023-12-31T21:59:30.908Z,10.00
2023-12-31T22:04:29.365Z,12.40
2023-12-31T22:06:58.394Z,11.20
2023-12-31T22:09:27.269Z,14.30
2023-12-31T22:11:55.803Z,10.60
2023-12-31T22:16:52.896Z,16.80
2023-12-31T22:19:21.415Z,13.60
2023-12-31T22:21:49.809Z,20.70
2023-12-31T22:24:18.112Z,17.50
2023-12-31T22:29:15.459Z,21.10
2023-12-31T22:31:43.924Z,16.50
2023-12-31T22:34:12.400Z,19.30
2023-12-31T22:36:41.246Z,17.20
2023-12-31T22:39:09.888Z,23.00
2023-12-31T22:44:06.920Z,16.20
2023-12-31T22:46:35.390Z,15.40
2023-12-31T22:49:04.116Z,18.40
2023-12-31T22:51:33.031Z,24.80
2023-12-31T22:54:01.702Z,28.10
2023-12-31T22:56:30.219Z,21.80
2023-12-31T23:01:30.599Z,16.90
2023-12-31T23:03:58.946Z,16.20
2023-12-31T23:08:56.148Z,11.50
2023-12-31T23:11:24.485Z,10.40
2023-12-31T23:16:21.674Z,9.90
2023-12-31T23:18:50.496Z,9.50
2023-12-31T23:21:20.302Z,8.00
2023-12-31T23:23:48.815Z,8.90
2023-12-31T23:28:50.029Z,7.60
2023-12-31T23:31:18.699Z,7.80
2023-12-31T23:33:47.155Z,7.40
2023-12-31T23:38:44.129Z,6.00
2023-12-31T23:41:13.006Z,6.60
2023-12-31T23:43:42.468Z,8.90
2023-12-31T23:46:11.990Z,7.90
2023-12-31T23:48:40.495Z,10.20
2023-12-31T23:51:09.287Z,7.90
2023-12-31T23:53:37.935Z,9.00
2023-12-31T23:56:07.869Z,8.40
2023-12-31T23:58:37.941Z,10.80
